createdAt,value
2017-02-14T00:00:16.741Z,0
2017-02-14T00:01:25.890Z,0
2017-02-14T00:02:34.614Z,0
2017-02-14T00:03:43.713Z,0
2017-02-14T00:04:52.441Z,0
2017-02-14T00:06:01.152Z,0
2017-02-14T00:07:10.264Z,0
2017-02-14T00:08:18.997Z,0
2017-02-14T00:09:28.130Z,0
2017-02-14T00:10:37.617Z,0
2017-02-14T00:11:46.765Z,0
2017-02-14T00:12:55.523Z,0
2017-02-14T00:14:04.246Z,0
2017-02-14T00:15:12.964Z,0
2017-02-14T00:16:21.682Z,0
2017-02-14T00:17:30.398Z,0
2017-02-14T00:18:39.127Z,0
2017-02-14T00:19:48.255Z,0
2017-02-14T00:20:56.965Z,0
2017-02-14T00:22:06.076Z,0
2017-02-14T00:23:14.815Z,0
2017-02-14T00:24:23.526Z,0
2017-02-14T00:25:32.650Z,0
2017-02-14T00:26:41.372Z,0
2017-02-14T00:27:50.497Z,0
2017-02-14T00:28:59.198Z,0
2017-02-14T00:30:08.721Z,0
2017-02-14T00:31:17.464Z,0
2017-02-14T00:32:26.187Z,0
2017-02-14T00:33:34.902Z,0
2017-02-14T00:34:43.650Z,0
2017-02-14T00:35:52.419Z,0
2017-02-14T00:37:01.161Z,0
2017-02-14T00:38:09.868Z,0
2017-02-14T00:39:18.585Z,0
2017-02-14T00:40:27.323Z,0
2017-02-14T00:41:36.018Z,0
2017-02-14T00:42:44.769Z,0
2017-02-14T00:43:53.929Z,0
2017-02-14T00:45:02.665Z,0
2017-02-14T00:46:11.777Z,0
2017-02-14T00:47:20.502Z,0
2017-02-14T00:48:30.019Z,0
2017-02-14T00:49:38.767Z,0
2017-02-14T00:50:48.260Z,0
2017-02-14T00:51:56.986Z,0
2017-02-14T00:53:05.715Z,0
2017-02-14T00:54:14.418Z,0
2017-02-14T00:55:23.543Z,0
2017-02-14T00:56:32.306Z,0
2017-02-14T00:57:41.067Z,0
2017-02-14T00:58:49.802Z,0
2017-02-14T00:59:58.527Z,0
2017-02-14T01:01:07.254Z,0
2017-02-14T01:02:15.985Z,0
2017-02-14T01:03:25.478Z,0
2017-02-14T01:04:34.202Z,0
2017-02-14T01:05:42.941Z,0
2017-02-14T01:06:51.671Z,0
2017-02-14T01:08:00.789Z,0
2017-02-14T01:09:09.544Z,0
2017-02-14T01:10:18.266Z,0
2017-02-14T01:11:27.360Z,0
2017-02-14T01:12:36.115Z,0
2017-02-14T01:13:44.835Z,0
2017-02-14T01:14:53.554Z,0
2017-02-14T01:16:03.064Z,0
2017-02-14T01:17:12.177Z,0
2017-02-14T01:18:21.320Z,0
2017-02-14T01:19:30.043Z,0
2017-02-14T01:20:38.745Z,0
2017-02-14T01:21:47.494Z,0
2017-02-14T01:22:56.239Z,0
2017-02-14T01:24:04.948Z,0
2017-02-14T01:25:14.052Z,0
2017-02-14T01:26:22.780Z,0
2017-02-14T01:27:31.490Z,0
2017-02-14T01:28:40.216Z,0
2017-02-14T01:29:48.957Z,0
2017-02-14T01:30:57.663Z,0
2017-02-14T01:32:06.400Z,0
2017-02-14T01:33:15.501Z,0
2017-02-14T01:34:24.229Z,0
2017-02-14T01:35:32.957Z,0
2017-02-14T01:36:41.670Z,0
2017-02-14T01:37:50.399Z,0
2017-02-14T01:38:59.521Z,0
2017-02-14T01:40:08.220Z,0
2017-02-14T01:41:17.325Z,0
2017-02-14T01:42:26.449Z,0
2017-02-14T01:43:35.575Z,0
2017-02-14T01:44:44.299Z,0
2017-02-14T01:45:53.037Z,0
2017-02-14T01:47:01.740Z,0
2017-02-14T01:48:10.466Z,0
2017-02-14T01:49:19.169Z,0
2017-02-14T01:50:27.892Z,0
2017-02-14T01:51:36.615Z,0
2017-02-14T01:52:45.327Z,0
2017-02-14T01:53:54.043Z,0
2017-02-14T01:55:02.772Z,0
2017-02-14T01:56:11.484Z,0
2017-02-14T01:57:20.210Z,0
2017-02-14T01:58:28.949Z,0
2017-02-14T01:59:37.684Z,0
2017-02-14T02:00:46.403Z,0
2017-02-14T02:01:55.126Z,0
2017-02-14T02:03:03.838Z,0
2017-02-14T02:04:12.581Z,0
2017-02-14T02:05:21.325Z,0
2017-02-14T02:06:30.024Z,0
2017-02-14T02:07:39.566Z,0
2017-02-14T02:08:48.309Z,0
2017-02-14T02:09:57.007Z,0
2017-02-14T02:11:05.735Z,0
2017-02-14T02:12:14.872Z,0
2017-02-14T02:13:23.587Z,0
2017-02-14T02:14:32.312Z,0
2017-02-14T02:15:41.042Z,0
2017-02-14T02:16:49.770Z,0
2017-02-14T02:17:58.886Z,0
2017-02-14T02:19:08.030Z,0
2017-02-14T02:20:17.161Z,0
2017-02-14T02:21:25.869Z,0
2017-02-14T02:22:34.619Z,0
2017-02-14T02:23:43.347Z,0
2017-02-14T02:24:52.040Z,0
2017-02-14T02:26:00.790Z,0
2017-02-14T02:27:09.542Z,0
2017-02-14T02:28:18.237Z,0
2017-02-14T02:29:26.963Z,0
2017-02-14T02:30:35.682Z,0
2017-02-14T02:31:44.426Z,0
2017-02-14T02:32:53.143Z,0
2017-02-14T02:34:01.846Z,0
2017-02-14T02:35:10.973Z,0
2017-02-14T02:36:19.690Z,0
2017-02-14T02:37:28.399Z,0
2017-02-14T02:38:37.530Z,0
2017-02-14T02:39:46.293Z,0
2017-02-14T02:40:55.394Z,0
2017-02-14T02:42:04.101Z,0
2017-02-14T02:43:12.875Z,0
2017-02-14T02:44:21.601Z,0
2017-02-14T02:45:30.318Z,0
2017-02-14T02:46:39.057Z,0
2017-02-14T02:47:47.780Z,0
2017-02-14T02:48:56.509Z,0
2017-02-14T02:50:05.199Z,0
2017-02-14T02:51:13.911Z,0
2017-02-14T02:52:22.632Z,0
2017-02-14T02:53:31.337Z,0
2017-02-14T02:54:40.041Z,0
2017-02-14T02:55:48.775Z,0
2017-02-14T02:56:57.496Z,0
2017-02-14T02:58:06.593Z,0
2017-02-14T02:59:15.321Z,0
2017-02-14T03:00:24.027Z,0
2017-02-14T03:01:33.153Z,0
2017-02-14T03:02:41.865Z,0
2017-02-14T03:03:50.961Z,0
2017-02-14T03:05:00.091Z,0
2017-02-14T03:06:08.804Z,0
2017-02-14T03:07:17.513Z,0
2017-02-14T03:08:26.243Z,0
2017-02-14T03:09:34.963Z,0
2017-02-14T03:10:43.698Z,0
2017-02-14T03:11:52.420Z,0
2017-02-14T03:13:01.151Z,0
2017-02-14T03:14:09.854Z,0
2017-02-14T03:15:18.562Z,0
2017-02-14T03:16:27.283Z,0
2017-02-14T03:17:36.005Z,0
2017-02-14T03:18:44.722Z,0
2017-02-14T03:19:53.481Z,0
2017-02-14T03:21:02.215Z,0
2017-02-14T03:22:10.954Z,0
2017-02-14T03:23:19.669Z,0
2017-02-14T03:24:28.402Z,0
2017-02-14T03:25:37.167Z,0
2017-02-14T03:26:45.924Z,0
2017-02-14T03:27:54.636Z,0
2017-02-14T03:29:03.387Z,0
2017-02-14T03:30:12.109Z,0
2017-02-14T03:31:21.237Z,0
2017-02-14T03:32:29.937Z,0
2017-02-14T03:33:39.050Z,0
2017-02-14T03:34:47.790Z,0
2017-02-14T03:35:56.489Z,0
2017-02-14T03:37:05.209Z,0
2017-02-14T03:38:14.716Z,0
2017-02-14T03:39:23.450Z,0
2017-02-14T03:40:32.554Z,0
2017-02-14T03:41:41.683Z,0
2017-02-14T03:42:50.392Z,0
2017-02-14T03:43:59.512Z,0
2017-02-14T03:45:08.638Z,0
2017-02-14T03:46:17.366Z,0
2017-02-14T03:47:26.496Z,0
2017-02-14T03:48:35.608Z,0
2017-02-14T03:49:44.354Z,0
2017-02-14T03:50:53.486Z,0
2017-02-14T03:52:02.197Z,0
2017-02-14T03:53:10.890Z,0
2017-02-14T03:54:20.015Z,0
2017-02-14T03:55:28.739Z,0
2017-02-14T03:56:37.434Z,0
2017-02-14T03:57:46.152Z,0
2017-02-14T03:58:54.867Z,0
2017-02-14T04:00:03.642Z,0
2017-02-14T04:01:12.361Z,0
2017-02-14T04:02:22.248Z,0
2017-02-14T04:03:30.980Z,0
2017-02-14T04:04:40.105Z,0
2017-02-14T04:05:48.829Z,0
2017-02-14T04:06:57.556Z,0
2017-02-14T04:08:06.680Z,0
2017-02-14T04:09:15.396Z,0
2017-02-14T04:10:24.114Z,0
2017-02-14T04:11:32.842Z,0
2017-02-14T04:12:41.581Z,0
2017-02-14T04:13:50.689Z,0
2017-02-14T04:14:59.426Z,0
2017-02-14T04:16:08.162Z,0
2017-02-14T04:17:17.260Z,0
2017-02-14T04:18:26.396Z,0
2017-02-14T04:19:35.128Z,0
2017-02-14T04:20:43.843Z,0
2017-02-14T04:21:52.583Z,0
2017-02-14T04:23:01.308Z,0
2017-02-14T04:24:10.427Z,0
2017-02-14T04:25:19.162Z,0
2017-02-14T04:26:27.940Z,0
2017-02-14T04:27:36.691Z,0
2017-02-14T04:28:45.805Z,0
2017-02-14T04:29:54.538Z,0
2017-02-14T04:31:03.275Z,0
2017-02-14T04:32:11.992Z,0
2017-02-14T04:33:20.706Z,0
2017-02-14T04:34:29.444Z,0
2017-02-14T04:35:38.567Z,0
2017-02-14T04:36:47.281Z,0
2017-02-14T04:37:56.012Z,0
2017-02-14T04:39:04.746Z,0
2017-02-14T04:40:13.458Z,0
2017-02-14T04:41:22.591Z,0
2017-02-14T04:42:31.712Z,0
2017-02-14T04:43:40.490Z,0
2017-02-14T04:44:49.255Z,0
2017-02-14T04:45:58.771Z,0
2017-02-14T04:47:07.502Z,0
2017-02-14T04:48:16.237Z,0
2017-02-14T04:49:25.330Z,0
2017-02-14T04:50:34.073Z,0
2017-02-14T04:51:42.829Z,0
2017-02-14T04:52:51.553Z,0
2017-02-14T04:54:00.273Z,0
2017-02-14T04:55:08.999Z,0
2017-02-14T04:56:17.723Z,0
2017-02-14T04:57:26.472Z,0
2017-02-14T04:58:35.196Z,0
2017-02-14T04:59:44.299Z,0
2017-02-14T05:00:53.038Z,0
2017-02-14T05:02:01.753Z,0
2017-02-14T05:03:10.465Z,0
2017-02-14T05:04:19.195Z,0
2017-02-14T05:05:27.905Z,0
2017-02-14T05:06:37.006Z,0
2017-02-14T05:07:45.762Z,0
2017-02-14T05:08:54.492Z,0
2017-02-14T05:10:03.215Z,0
2017-02-14T05:11:11.960Z,0
2017-02-14T05:12:21.071Z,0
2017-02-14T05:13:30.198Z,0
2017-02-14T05:14:38.909Z,0
2017-02-14T05:15:47.608Z,0
2017-02-14T05:16:56.738Z,0
2017-02-14T05:18:05.847Z,0
2017-02-14T05:19:14.574Z,0
2017-02-14T05:20:23.318Z,0
2017-02-14T05:21:32.465Z,0
2017-02-14T05:22:41.562Z,0
2017-02-14T05:23:50.696Z,0
2017-02-14T05:24:59.426Z,0
2017-02-14T05:26:08.132Z,0
2017-02-14T05:27:16.847Z,0
2017-02-14T05:28:25.570Z,0
2017-02-14T05:29:34.697Z,0
2017-02-14T05:30:43.431Z,0
2017-02-14T05:31:52.127Z,0
2017-02-14T05:33:01.230Z,0
2017-02-14T05:34:09.969Z,0
2017-02-14T05:35:18.677Z,0
2017-02-14T05:36:27.420Z,0
2017-02-14T05:37:36.158Z,0
2017-02-14T05:38:44.867Z,0
2017-02-14T05:39:53.589Z,0
2017-02-14T05:41:02.320Z,0
2017-02-14T05:42:11.040Z,0
2017-02-14T05:43:20.564Z,0
2017-02-14T05:44:29.265Z,0
2017-02-14T05:45:38.399Z,0
2017-02-14T05:46:47.146Z,0
2017-02-14T05:47:55.911Z,0
2017-02-14T05:49:04.621Z,0
2017-02-14T05:50:13.357Z,0
2017-02-14T05:51:22.465Z,0
2017-02-14T05:52:31.192Z,0
2017-02-14T05:53:39.931Z,0
2017-02-14T05:54:48.656Z,0
2017-02-14T05:55:57.382Z,0
2017-02-14T05:57:06.902Z,0
2017-02-14T05:58:15.635Z,0
2017-02-14T05:59:24.352Z,0
2017-02-14T06:00:33.495Z,0
2017-02-14T06:01:42.232Z,0
2017-02-14T06:02:50.984Z,0
2017-02-14T06:03:59.699Z,0
2017-02-14T06:05:08.407Z,0
2017-02-14T06:06:17.144Z,0
2017-02-14T06:07:26.272Z,0
2017-02-14T06:08:34.997Z,0
2017-02-14T06:09:43.728Z,0
2017-02-14T06:10:52.463Z,0
2017-02-14T06:12:01.165Z,0
2017-02-14T06:13:09.892Z,0
2017-02-14T06:14:19.041Z,0
2017-02-14T06:15:27.762Z,0
2017-02-14T06:16:36.484Z,0
2017-02-14T06:17:45.219Z,0
2017-02-14T06:18:53.971Z,0
2017-02-14T06:20:03.074Z,0
2017-02-14T06:21:11.818Z,0
2017-02-14T06:22:21.736Z,0
2017-02-14T06:23:30.442Z,0
2017-02-14T06:24:39.557Z,0
2017-02-14T06:25:48.262Z,0
2017-02-14T06:26:57.381Z,0
2017-02-14T06:28:06.117Z,0
2017-02-14T06:29:14.821Z,0
2017-02-14T06:30:23.557Z,0
2017-02-14T06:31:32.696Z,0
2017-02-14T06:32:41.409Z,0
2017-02-14T06:33:50.181Z,0
2017-02-14T06:34:58.900Z,0
2017-02-14T06:36:07.606Z,0
2017-02-14T06:37:16.324Z,0
2017-02-14T06:38:25.071Z,0
2017-02-14T06:39:33.794Z,0
2017-02-14T06:40:42.528Z,5
2017-02-14T06:41:51.245Z,5
2017-02-14T06:42:59.968Z,5
2017-02-14T06:44:08.693Z,5
2017-02-14T06:45:17.396Z,5
2017-02-14T06:46:26.166Z,5
2017-02-14T06:47:35.293Z,5
2017-02-14T06:48:43.990Z,5
2017-02-14T06:49:52.715Z,10
2017-02-14T06:51:01.476Z,10
2017-02-14T06:52:10.989Z,10
2017-02-14T06:53:19.726Z,10
2017-02-14T06:54:28.857Z,10
2017-02-14T06:55:37.590Z,15
2017-02-14T06:56:46.718Z,15
2017-02-14T06:57:55.852Z,15
2017-02-14T06:59:04.592Z,15
2017-02-14T07:00:13.358Z,20
2017-02-14T07:01:22.092Z,20
2017-02-14T07:02:30.810Z,20
2017-02-14T07:03:39.937Z,25
2017-02-14T07:04:48.665Z,25
2017-02-14T07:05:57.772Z,25
2017-02-14T07:07:06.505Z,25
2017-02-14T07:08:15.219Z,30
2017-02-14T07:09:24.333Z,30
2017-02-14T07:10:33.466Z,30
2017-02-14T07:11:42.183Z,35
2017-02-14T07:12:50.922Z,35
2017-02-14T07:13:59.688Z,35
2017-02-14T07:15:08.399Z,40
2017-02-14T07:16:17.168Z,40
2017-02-14T07:17:25.885Z,40
2017-02-14T07:18:34.586Z,45
2017-02-14T07:19:43.329Z,45
2017-02-14T07:20:52.051Z,45
2017-02-14T07:22:01.549Z,45
2017-02-14T07:23:10.279Z,45
2017-02-14T07:24:18.989Z,45
2017-02-14T07:25:27.751Z,50
2017-02-14T07:26:36.880Z,50
2017-02-14T07:27:45.583Z,50
2017-02-14T07:28:54.300Z,50
2017-02-14T07:30:03.064Z,55
2017-02-14T07:31:11.771Z,55
2017-02-14T07:32:20.886Z,55
2017-02-14T07:33:29.651Z,55
2017-02-14T07:34:38.364Z,60
2017-02-14T07:35:47.127Z,60
2017-02-14T07:36:55.845Z,60
2017-02-14T07:38:04.562Z,60
2017-02-14T07:39:13.295Z,65
2017-02-14T07:40:22.017Z,65
2017-02-14T07:41:30.775Z,65
2017-02-14T07:42:39.544Z,65
2017-02-14T07:43:48.262Z,70
2017-02-14T07:44:57.752Z,70
2017-02-14T07:46:06.478Z,70
2017-02-14T07:47:15.204Z,70
2017-02-14T07:48:23.921Z,75
2017-02-14T07:49:32.665Z,75
2017-02-14T07:50:41.390Z,75
2017-02-14T07:51:50.493Z,75
2017-02-14T07:52:59.221Z,75
2017-02-14T07:54:07.958Z,80
2017-02-14T07:55:16.693Z,80
2017-02-14T07:56:25.807Z,80
2017-02-14T07:57:34.563Z,85
2017-02-14T07:58:43.693Z,80
2017-02-14T07:59:52.417Z,85
2017-02-14T08:01:01.157Z,90
2017-02-14T08:02:09.912Z,85
2017-02-14T08:03:18.636Z,85
2017-02-14T08:04:27.641Z,85
2017-02-14T08:05:37.170Z,90
2017-02-14T08:06:45.895Z,90
2017-02-14T08:07:54.611Z,95
2017-02-14T08:09:03.364Z,95
2017-02-14T08:10:12.135Z,90
2017-02-14T08:11:22.052Z,90
2017-02-14T08:12:31.170Z,90
2017-02-14T08:13:39.896Z,90
2017-02-14T08:14:48.664Z,90
2017-02-14T08:15:57.759Z,90
2017-02-14T08:17:06.686Z,90
2017-02-14T08:18:15.819Z,100
2017-02-14T08:19:24.525Z,95
2017-02-14T08:20:33.276Z,95
2017-02-14T08:21:42.017Z,95
2017-02-14T08:22:50.741Z,95
2017-02-14T08:23:59.458Z,95
2017-02-14T08:25:08.975Z,95
2017-02-14T08:26:17.715Z,100
2017-02-14T08:27:26.444Z,100
2017-02-14T08:28:35.155Z,100
2017-02-14T08:29:43.877Z,100
2017-02-14T08:30:52.593Z,100
2017-02-14T08:32:01.310Z,100
2017-02-14T08:33:10.457Z,105
2017-02-14T08:34:19.188Z,105
2017-02-14T08:35:28.339Z,105
2017-02-14T08:36:37.057Z,105
2017-02-14T08:37:45.768Z,105
2017-02-14T08:38:54.500Z,105
2017-02-14T08:40:03.255Z,105
2017-02-14T08:41:11.960Z,110
2017-02-14T08:42:22.497Z,110
2017-02-14T08:43:34.448Z,110
2017-02-14T08:44:43.158Z,110
2017-02-14T08:45:51.877Z,110
2017-02-14T08:47:00.610Z,110
2017-02-14T08:48:09.391Z,110
2017-02-14T08:49:18.898Z,115
2017-02-14T08:50:28.437Z,115
2017-02-14T08:51:37.188Z,115
2017-02-14T08:52:45.941Z,115
2017-02-14T08:53:55.067Z,115
2017-02-14T08:55:04.195Z,115
2017-02-14T08:56:12.938Z,115
2017-02-14T08:57:22.034Z,120
2017-02-14T08:58:30.781Z,120
2017-02-14T08:59:39.904Z,120
2017-02-14T09:00:48.622Z,120
2017-02-14T09:01:57.767Z,120
2017-02-14T09:03:06.530Z,120
2017-02-14T09:04:15.249Z,120
2017-02-14T09:05:24.350Z,120
2017-02-14T09:06:33.090Z,125
2017-02-14T09:07:41.814Z,125
2017-02-14T09:08:50.521Z,125
2017-02-14T09:09:59.681Z,125
2017-02-14T09:11:08.401Z,125
2017-02-14T09:12:17.112Z,125
2017-02-14T09:13:26.254Z,125
2017-02-14T09:14:35.786Z,125
2017-02-14T09:15:44.515Z,125
2017-02-14T09:16:53.614Z,125
2017-02-14T09:18:03.138Z,125
2017-02-14T09:19:11.848Z,125
2017-02-14T09:20:20.561Z,125
2017-02-14T09:21:29.670Z,125
2017-02-14T09:22:38.802Z,125
2017-02-14T09:23:47.544Z,125
2017-02-14T09:24:56.253Z,125
2017-02-14T09:26:04.970Z,130
2017-02-14T09:27:13.705Z,130
2017-02-14T09:28:22.457Z,130
2017-02-14T09:29:31.202Z,130
2017-02-14T09:30:40.367Z,130
2017-02-14T09:31:49.478Z,130
2017-02-14T09:32:58.593Z,130
2017-02-14T09:34:07.324Z,130
2017-02-14T09:35:16.440Z,130
2017-02-14T09:36:25.179Z,135
2017-02-14T09:37:33.916Z,135
2017-02-14T09:38:42.649Z,135
2017-02-14T09:39:51.401Z,135
2017-02-14T09:41:00.119Z,135
2017-02-14T09:42:08.831Z,135
2017-02-14T09:43:17.591Z,135
2017-02-14T09:44:26.738Z,135
2017-02-14T09:45:35.483Z,135
2017-02-14T09:46:44.206Z,135
2017-02-14T09:47:53.343Z,135
2017-02-14T09:49:02.850Z,140
2017-02-14T09:50:11.970Z,140
2017-02-14T09:51:20.694Z,140
2017-02-14T09:52:29.429Z,140
2017-02-14T09:53:38.150Z,140
2017-02-14T09:54:46.898Z,140
2017-02-14T09:55:55.625Z,140
2017-02-14T09:57:04.363Z,140
2017-02-14T09:58:13.460Z,145
2017-02-14T09:59:22.186Z,145
2017-02-14T10:00:30.941Z,145
2017-02-14T10:01:39.645Z,145
2017-02-14T10:02:48.759Z,145
2017-02-14T10:03:57.495Z,145
2017-02-14T10:05:06.213Z,145
2017-02-14T10:06:15.672Z,145
2017-02-14T10:07:24.436Z,145
2017-02-14T10:08:33.183Z,145
2017-02-14T10:09:41.912Z,145
2017-02-14T10:10:51.093Z,145
2017-02-14T10:12:00.213Z,145
2017-02-14T10:13:08.938Z,145
2017-02-14T10:14:17.694Z,145
2017-02-14T10:15:26.447Z,150
2017-02-14T10:16:35.156Z,150
2017-02-14T10:17:43.886Z,150
2017-02-14T10:18:52.623Z,150
2017-02-14T10:20:01.348Z,150
2017-02-14T10:21:10.066Z,150
2017-02-14T10:22:19.210Z,150
2017-02-14T10:23:27.934Z,150
2017-02-14T10:24:36.665Z,150
2017-02-14T10:25:46.178Z,150
2017-02-14T10:26:54.917Z,150
2017-02-14T10:28:03.646Z,150
2017-02-14T10:29:12.359Z,150
2017-02-14T10:30:21.123Z,155
2017-02-14T10:31:29.865Z,155
2017-02-14T10:32:38.986Z,155
2017-02-14T10:33:48.116Z,155
2017-02-14T10:34:56.860Z,155
2017-02-14T10:36:05.989Z,155
2017-02-14T10:37:14.717Z,155
2017-02-14T10:38:23.428Z,155
2017-02-14T10:39:32.162Z,155
2017-02-14T10:40:40.934Z,155
2017-02-14T10:41:50.054Z,155
2017-02-14T10:42:59.170Z,160
2017-02-14T10:44:07.920Z,155
2017-02-14T10:45:16.663Z,155
2017-02-14T10:46:25.403Z,155
2017-02-14T10:47:34.169Z,155
2017-02-14T10:48:42.899Z,155
2017-02-14T10:49:51.620Z,155
2017-02-14T10:51:00.357Z,155
2017-02-14T10:52:09.073Z,155
2017-02-14T10:53:17.825Z,155
2017-02-14T10:54:26.574Z,155
2017-02-14T10:55:35.288Z,160
2017-02-14T10:56:44.080Z,160
2017-02-14T10:57:52.809Z,160
2017-02-14T10:59:01.509Z,160
2017-02-14T11:00:10.282Z,160
2017-02-14T11:01:19.007Z,160
2017-02-14T11:02:27.739Z,160
2017-02-14T11:03:36.485Z,160
2017-02-14T11:04:45.239Z,160
2017-02-14T11:05:53.976Z,160
2017-02-14T11:07:03.094Z,160
2017-02-14T11:08:11.816Z,160
2017-02-14T11:09:20.538Z,160
2017-02-14T11:10:29.269Z,160
2017-02-14T11:11:37.994Z,160
2017-02-14T11:12:46.736Z,160
2017-02-14T11:13:55.470Z,160
2017-02-14T11:15:04.598Z,160
2017-02-14T11:16:13.326Z,160
2017-02-14T11:17:22.069Z,160
2017-02-14T11:18:31.201Z,160
2017-02-14T11:19:40.342Z,160
2017-02-14T11:20:49.525Z,160
2017-02-14T11:21:59.311Z,160
2017-02-14T11:23:08.458Z,160
2017-02-14T11:24:17.168Z,160
2017-02-14T11:25:25.914Z,160
2017-02-14T11:26:34.657Z,160
2017-02-14T11:27:43.389Z,160
2017-02-14T11:28:52.520Z,165
2017-02-14T11:30:01.254Z,165
2017-02-14T11:31:10.783Z,165
2017-02-14T11:32:19.497Z,165
2017-02-14T11:33:28.638Z,165
2017-02-14T11:34:38.146Z,165
2017-02-14T11:35:47.278Z,165
2017-02-14T11:36:56.006Z,165
2017-02-14T11:38:04.738Z,165
2017-02-14T11:39:13.902Z,165
2017-02-14T11:40:22.651Z,165
2017-02-14T11:41:31.745Z,165
2017-02-14T11:42:40.481Z,165
2017-02-14T11:43:49.638Z,165
2017-02-14T11:44:58.368Z,165
2017-02-14T11:46:07.101Z,165
2017-02-14T11:47:16.248Z,165
2017-02-14T11:48:24.975Z,165
2017-02-14T11:49:34.238Z,165
2017-02-14T11:50:43.213Z,165
2017-02-14T11:51:51.994Z,165
2017-02-14T11:53:00.741Z,165
2017-02-14T11:54:09.478Z,165
2017-02-14T11:55:18.211Z,165
2017-02-14T11:56:26.952Z,165
2017-02-14T11:57:36.075Z,165
2017-02-14T11:58:44.801Z,165
2017-02-14T11:59:53.552Z,165
2017-02-14T12:01:02.269Z,165
2017-02-14T12:02:11.006Z,165
2017-02-14T12:03:19.753Z,165
2017-02-14T12:04:28.468Z,165
2017-02-14T12:05:37.214Z,165
2017-02-14T12:06:45.954Z,165
2017-02-14T12:07:55.472Z,165
2017-02-14T12:09:04.643Z,165
2017-02-14T12:10:13.389Z,165
2017-02-14T12:11:22.117Z,165
2017-02-14T12:12:31.013Z,165
2017-02-14T12:13:39.753Z,165
2017-02-14T12:14:49.232Z,165
2017-02-14T12:15:58.147Z,165
2017-02-14T12:17:06.907Z,165
2017-02-14T12:18:15.618Z,165
2017-02-14T12:19:24.400Z,165
2017-02-14T12:20:33.172Z,165
2017-02-14T12:21:41.884Z,165
2017-02-14T12:22:50.609Z,165
2017-02-14T12:23:59.502Z,165
2017-02-14T12:25:08.602Z,170
2017-02-14T12:26:17.332Z,165
2017-02-14T12:27:26.061Z,165
2017-02-14T12:28:34.767Z,165
2017-02-14T12:29:43.507Z,165
2017-02-14T12:30:52.645Z,165
2017-02-14T12:32:01.760Z,165
2017-02-14T12:33:10.532Z,165
2017-02-14T12:34:19.252Z,165
2017-02-14T12:35:27.988Z,160
2017-02-14T12:36:37.136Z,160
2017-02-14T12:37:45.858Z,160
2017-02-14T12:38:54.569Z,160
2017-02-14T12:40:03.322Z,160
2017-02-14T12:41:12.029Z,160
2017-02-14T12:42:20.768Z,160
2017-02-14T12:43:29.510Z,160
2017-02-14T12:44:38.640Z,160
2017-02-14T12:45:47.763Z,160
2017-02-14T12:46:57.291Z,160
2017-02-14T12:48:06.435Z,160
2017-02-14T12:49:15.550Z,160
2017-02-14T12:50:24.673Z,160
2017-02-14T12:51:33.399Z,160
2017-02-14T12:52:42.141Z,160
2017-02-14T12:53:50.870Z,160
2017-02-14T12:54:59.592Z,155
2017-02-14T12:56:08.339Z,155
2017-02-14T12:57:17.466Z,155
2017-02-14T12:58:26.166Z,155
2017-02-14T12:59:35.396Z,155
2017-02-14T13:00:44.188Z,155
2017-02-14T13:01:52.934Z,155
2017-02-14T13:03:01.721Z,155
2017-02-14T13:04:10.476Z,155
2017-02-14T13:05:19.224Z,155
2017-02-14T13:06:28.068Z,155
2017-02-14T13:07:36.795Z,155
2017-02-14T13:08:45.522Z,155
2017-02-14T13:09:54.671Z,155
2017-02-14T13:11:03.383Z,155
2017-02-14T13:12:12.512Z,155
2017-02-14T13:13:21.251Z,155
2017-02-14T13:14:29.958Z,155
2017-02-14T13:15:38.688Z,155
2017-02-14T13:16:47.484Z,150
2017-02-14T13:17:56.216Z,150
2017-02-14T13:19:05.368Z,150
2017-02-14T13:20:14.078Z,150
2017-02-14T13:21:23.226Z,150
2017-02-14T13:22:31.988Z,150
2017-02-14T13:23:40.732Z,150
2017-02-14T13:24:49.483Z,150
2017-02-14T13:25:58.253Z,150
2017-02-14T13:27:06.982Z,145
2017-02-14T13:28:15.710Z,145
2017-02-14T13:29:24.475Z,145
2017-02-14T13:30:33.227Z,145
2017-02-14T13:31:41.984Z,145
2017-02-14T13:32:50.687Z,145
2017-02-14T13:33:59.807Z,145
2017-02-14T13:35:08.941Z,145
2017-02-14T13:36:18.061Z,145
2017-02-14T13:37:27.622Z,145
2017-02-14T13:38:36.388Z,145
2017-02-14T13:39:45.116Z,145
2017-02-14T13:40:53.840Z,145
2017-02-14T13:42:02.581Z,150
2017-02-14T13:43:11.329Z,145
2017-02-14T13:44:20.051Z,145
2017-02-14T13:45:29.200Z,145
2017-02-14T13:46:37.924Z,145
2017-02-14T13:47:46.674Z,140
2017-02-14T13:48:55.810Z,140
2017-02-14T13:50:04.542Z,140
2017-02-14T13:51:13.271Z,140
2017-02-14T13:52:22.002Z,140
2017-02-14T13:53:31.144Z,140
2017-02-14T13:54:39.893Z,140
2017-02-14T13:55:49.032Z,140
2017-02-14T13:56:57.750Z,135
2017-02-14T13:58:06.728Z,135
2017-02-14T13:59:15.480Z,135
2017-02-14T14:00:24.213Z,135
2017-02-14T14:01:33.357Z,135
2017-02-14T14:02:42.106Z,135
2017-02-14T14:03:50.832Z,135
2017-02-14T14:04:59.552Z,135
2017-02-14T14:06:08.706Z,130
2017-02-14T14:07:17.422Z,130
2017-02-14T14:08:26.173Z,130
2017-02-14T14:09:34.933Z,130
2017-02-14T14:10:43.658Z,130
2017-02-14T14:11:52.790Z,130
2017-02-14T14:13:01.514Z,130
2017-02-14T14:14:10.252Z,125
2017-02-14T14:15:19.373Z,125
2017-02-14T14:16:28.113Z,125
2017-02-14T14:17:36.843Z,125
2017-02-14T14:18:45.569Z,125
2017-02-14T14:19:54.301Z,120
2017-02-14T14:21:03.028Z,120
2017-02-14T14:22:12.226Z,120
2017-02-14T14:23:21.364Z,120
2017-02-14T14:24:30.110Z,120
2017-02-14T14:25:38.850Z,120
2017-02-14T14:26:47.593Z,120
2017-02-14T14:27:56.312Z,125
2017-02-14T14:29:05.028Z,120
2017-02-14T14:30:14.148Z,120
2017-02-14T14:31:22.889Z,115
2017-02-14T14:32:31.650Z,115
2017-02-14T14:33:40.371Z,115
2017-02-14T14:34:49.100Z,115
2017-02-14T14:35:57.901Z,115
2017-02-14T14:37:06.628Z,110
2017-02-14T14:38:15.744Z,110
2017-02-14T14:39:24.884Z,110
2017-02-14T14:40:33.613Z,110
2017-02-14T14:41:42.345Z,110
2017-02-14T14:42:51.485Z,110
2017-02-14T14:44:00.216Z,110
2017-02-14T14:45:08.952Z,105
2017-02-14T14:46:18.067Z,105
2017-02-14T14:47:26.784Z,105
2017-02-14T14:48:35.536Z,105
2017-02-14T14:49:44.666Z,105
2017-02-14T14:50:53.391Z,100
2017-02-14T14:52:02.549Z,100
2017-02-14T14:53:11.302Z,100
2017-02-14T14:54:20.035Z,100
2017-02-14T14:55:28.778Z,100
2017-02-14T14:56:37.501Z,95
2017-02-14T14:57:46.652Z,95
2017-02-14T14:58:55.809Z,95
2017-02-14T15:00:04.542Z,95
2017-02-14T15:01:13.677Z,95
2017-02-14T15:02:22.405Z,95
2017-02-14T15:03:31.123Z,90
2017-02-14T15:04:39.906Z,95
2017-02-14T15:05:49.062Z,90
2017-02-14T15:06:57.782Z,90
2017-02-14T15:08:06.927Z,90
2017-02-14T15:09:15.682Z,85
2017-02-14T15:10:25.046Z,85
